Time;durP1;ratioP1;P1;durP2;ratioP2;P2;SDS_P1;SDS_P2;PMS_P1;PMS_P2;Temp;Humidity;BMP_temperature;BMP_pressure;BME280_temperature;BME280_humidity;BME280_pressure;Samples;Min_cycle;Max_cycle;Signal;HPM_P1;HPM_P2
2021/03/16 00:00:36;;;;;;;1.03;0.90;;;19.70;41.10;;;;;;5053729;28;20481;-71
2021/03/16 00:03:02;;;;;;;0.80;0.80;;;19.70;41.00;;;;;;5055181;28;20493;-70
2021/03/16 00:05:29;;;;;;;0.93;0.70;;;19.70;41.10;;;;;;5053324;28;20488;-71
2021/03/16 00:07:55;;;;;;;3.03;0.97;;;19.70;41.00;;;;;;5057188;28;20486;-71
2021/03/16 00:10:21;;;;;;;0.70;0.60;;;19.70;40.90;;;;;;5072631;28;20487;-71
2021/03/16 00:12:47;;;;;;;1.90;0.73;;;19.70;40.80;;;;;;5074692;28;20894;-70
2021/03/16 00:15:14;;;;;;;0.80;0.70;;;19.70;40.80;;;;;;5067680;28;20488;-71
2021/03/16 00:17:41;;;;;;;0.90;0.90;;;19.70;40.70;;;;;;5062223;28;20480;-71
2021/03/16 00:20:08;;;;;;;0.87;0.60;;;19.80;40.80;;;;;;5056868;28;20516;-71
2021/03/16 00:22:35;;;;;;;1.17;0.73;;;19.70;40.70;;;;;;5058562;28;20465;-71
2021/03/16 00:25:02;;;;;;;4.50;1.00;;;19.70;40.70;;;;;;5052172;28;21000;-71
2021/03/16 00:27:28;;;;;;;2.07;0.63;;;19.70;40.70;;;;;;5054805;28;20911;-71
2021/03/16 00:29:54;;;;;;;1.13;0.70;;;19.80;40.80;;;;;;5055404;28;21002;-71
2021/03/16 00:32:20;;;;;;;1.97;0.70;;;19.70;40.60;;;;;;5056257;28;20481;-71
2021/03/16 00:34:46;;;;;;;1.77;0.80;;;19.80;40.60;;;;;;5055894;28;20471;-71
2021/03/16 00:37:12;;;;;;;4.50;1.40;;;19.80;40.60;;;;;;5045038;28;21456;-72
2021/03/16 00:39:39;;;;;;;0.73;0.60;;;19.80;40.50;;;;;;5057496;28;20911;-71
2021/03/16 00:42:06;;;;;;;3.13;1.00;;;19.90;40.50;;;;;;5057444;28;20899;-71
2021/03/16 00:44:32;;;;;;;1.37;0.87;;;19.80;40.40;;;;;;5069242;28;20485;-71
2021/03/16 00:46:58;;;;;;;2.80;0.93;;;19.80;40.30;;;;;;5051121;28;21515;-71
2021/03/16 00:49:24;;;;;;;0.97;0.97;;;19.90;40.30;;;;;;5055836;28;20490;-71
2021/03/16 00:51:52;;;;;;;1.17;0.80;;;19.90;40.20;;;;;;5056893;28;20478;-71
2021/03/16 00:54:18;;;;;;;0.93;0.50;;;19.90;40.20;;;;;;5054473;28;20486;-71
2021/03/16 00:56:45;;;;;;;0.67;0.67;;;19.90;40.20;;;;;;5054587;28;21955;-71
2021/03/16 00:59:11;;;;;;;3.87;0.80;;;19.80;40.10;;;;;;5067339;28;20485;-71
2021/03/16 01:01:38;;;;;;;3.70;1.10;;;19.90;40.20;;;;;;5056314;28;20485;-71
2021/03/16 01:04:05;;;;;;;1.13;0.80;;;19.80;40.20;;;;;;5057186;28;20989;-70
2021/03/16 01:06:31;;;;;;;1.47;1.13;;;19.80;40.20;;;;;;5055386;28;20502;-71
2021/03/16 01:08:57;;;;;;;2.40;0.80;;;19.80;40.20;;;;;;5061067;28;20489;-71
2021/03/16 01:11:23;;;;;;;3.77;0.80;;;19.80;40.30;;;;;;5066358;28;20497;-71
2021/03/16 01:13:50;;;;;;;2.93;0.87;;;19.70;40.30;;;;;;5042542;28;20481;-70
2021/03/16 01:16:16;;;;;;;2.00;0.70;;;19.70;40.30;;;;;;5056501;28;20498;-71
2021/03/16 01:18:42;;;;;;;1.00;0.70;;;19.70;40.20;;;;;;5057358;28;20477;-71
2021/03/16 01:21:08;;;;;;;1.70;1.00;;;19.70;40.30;;;;;;5048086;28;20896;-71
2021/03/16 01:23:35;;;;;;;0.90;0.63;;;19.70;40.20;;;;;;5052919;28;20476;-71
2021/03/16 01:26:01;;;;;;;0.70;0.70;;;19.70;40.20;;;;;;5065483;28;20494;-71
2021/03/16 01:28:27;;;;;;;2.33;0.80;;;19.70;40.20;;;;;;5055337;28;20484;-71
2021/03/16 01:30:54;;;;;;;1.17;0.70;;;19.70;40.20;;;;;;5068914;28;20491;-71
2021/03/16 01:33:20;;;;;;;1.50;0.60;;;19.70;40.10;;;;;;5052499;28;20485;-71
2021/03/16 01:35:46;;;;;;;0.60;0.60;;;19.70;40.00;;;;;;5054639;28;20505;-71
2021/03/16 01:38:13;;;;;;;0.63;0.60;;;19.70;40.00;;;;;;5058397;28;20482;-71
2021/03/16 01:40:40;;;;;;;0.60;0.60;;;19.70;40.00;;;;;;5055734;28;20478;-71
2021/03/16 01:43:07;;;;;;;2.77;0.73;;;19.70;40.10;;;;;;5049732;28;21409;-71
2021/03/16 01:45:34;;;;;;;0.70;0.60;;;19.70;40.10;;;;;;5056918;28;20485;-71
2021/03/16 01:48:01;;;;;;;2.00;0.87;;;19.70;40.10;;;;;;5048861;28;20488;-71
2021/03/16 01:50:27;;;;;;;0.70;0.70;;;19.70;40.10;;;;;;5070289;28;20524;-71
2021/03/16 01:52:54;;;;;;;0.63;0.63;;;19.70;40.10;;;;;;5048679;28;20946;-71
2021/03/16 01:55:20;;;;;;;1.90;1.07;;;19.70;40.10;;;;;;5082320;28;20482;-71
2021/03/16 01:57:47;;;;;;;3.43;0.90;;;19.70;40.10;;;;;;5053297;28;20498;-71
2021/03/16 02:00:14;;;;;;;1.10;0.93;;;19.70;40.10;;;;;;5055971;28;20792;-71
2021/03/16 02:02:40;;;;;;;1.60;0.60;;;19.70;40.10;;;;;;5052169;28;20497;-71
2021/03/16 02:05:09;;;;;;;2.40;0.80;;;19.70;40.10;;;;;;5055879;28;20540;-71
2021/03/16 02:07:36;;;;;;;1.90;0.90;;;19.60;40.10;;;;;;5055770;28;20505;-71
2021/03/16 02:10:06;;;;;;;1.40;1.00;;;19.60;40.10;;;;;;5053893;28;20489;-71
2021/03/16 02:12:36;;;;;;;2.30;0.83;;;19.70;40.10;;;;;;5055132;28;20478;-71
2021/03/16 02:15:05;;;;;;;1.80;0.77;;;19.60;40.10;;;;;;5052136;28;20485;-71
2021/03/16 02:17:32;;;;;;;2.20;0.60;;;19.60;40.00;;;;;;5054580;28;21124;-70
2021/03/16 02:20:22;;;;;;;2.60;1.17;;;19.60;40.00;;;;;;5051198;28;20844;-72
2021/03/16 02:22:48;;;;;;;1.73;0.70;;;19.60;39.90;;;;;;5056504;28;20830;-71
2021/03/16 02:25:28;;;;;;;3.77;0.80;;;19.60;39.90;;;;;;5050736;28;20494;-72
2021/03/16 02:28:09;;;;;;;1.10;0.77;;;19.60;39.90;;;;;;5053713;28;20480;-71
2021/03/16 02:30:37;;;;;;;1.07;0.73;;;19.60;39.90;;;;;;5051745;28;20478;-72
2021/03/16 02:33:04;;;;;;;0.40;0.40;;;19.60;39.90;;;;;;5053625;28;20481;-71
2021/03/16 02:35:30;;;;;;;1.03;0.57;;;19.60;40.00;;;;;;5052203;28;20504;-72
2021/03/16 02:37:56;;;;;;;2.03;0.90;;;19.70;40.10;;;;;;5069677;28;20474;-72
2021/03/16 02:40:23;;;;;;;0.60;0.60;;;19.60;40.00;;;;;;5058696;28;20572;-72
2021/03/16 02:42:49;;;;;;;1.00;0.70;;;19.60;40.00;;;;;;5044842;28;20478;-71
2021/03/16 02:45:16;;;;;;;0.60;0.53;;;19.60;40.00;;;;;;5052613;28;20477;-71
2021/03/16 02:47:43;;;;;;;3.37;1.07;;;19.60;40.00;;;;;;5053002;28;20543;-72
2021/03/16 02:50:10;;;;;;;0.60;0.60;;;19.60;40.00;;;;;;5045790;28;20851;-72
2021/03/16 02:52:36;;;;;;;0.70;0.70;;;19.60;40.00;;;;;;5056598;28;20470;-72
2021/03/16 02:55:03;;;;;;;1.90;0.90;;;19.60;39.90;;;;;;5055203;28;20482;-71
2021/03/16 02:57:29;;;;;;;1.90;0.80;;;19.60;39.90;;;;;;5051916;28;20507;-72
2021/03/16 02:59:55;;;;;;;0.90;0.70;;;19.70;39.90;;;;;;5056723;28;21056;-72
2021/03/16 03:02:21;;;;;;;2.40;0.60;;;19.70;39.80;;;;;;5054549;28;20842;-72
2021/03/16 03:04:48;;;;;;;1.40;0.70;;;19.70;39.80;;;;;;5044689;28;20500;-71
2021/03/16 03:07:15;;;;;;;0.80;0.63;;;19.70;39.80;;;;;;5054301;28;20493;-72
2021/03/16 03:09:41;;;;;;;1.30;0.87;;;19.70;39.80;;;;;;5053823;28;20994;-72
2021/03/16 03:12:08;;;;;;;1.70;0.87;;;19.70;39.90;;;;;;5053820;28;20473;-72
2021/03/16 03:14:35;;;;;;;1.23;0.70;;;19.70;39.80;;;;;;5050339;28;20504;-71
2021/03/16 03:17:02;;;;;;;0.60;0.60;;;19.70;39.90;;;;;;5056690;28;20490;-71
2021/03/16 03:19:28;;;;;;;1.97;0.80;;;19.60;39.90;;;;;;5054566;28;20487;-71
2021/03/16 03:22:00;;;;;;;1.37;0.90;;;19.60;39.90;;;;;;5054066;28;20485;-71
2021/03/16 03:24:34;;;;;;;3.00;0.73;;;19.60;39.90;;;;;;5051213;28;20494;-69
2021/03/16 03:27:04;;;;;;;1.57;1.07;;;19.70;39.90;;;;;;5051638;28;20547;-71
2021/03/16 03:29:30;;;;;;;0.90;0.90;;;19.60;39.80;;;;;;5054582;28;20485;-71
2021/03/16 03:31:56;;;;;;;1.90;0.70;;;19.70;39.80;;;;;;5053709;28;20617;-71
2021/03/16 03:34:22;;;;;;;1.03;0.80;;;19.60;39.80;;;;;;5055634;28;20485;-71
2021/03/16 03:36:50;;;;;;;2.80;1.27;;;19.60;39.80;;;;;;5052047;28;21031;-71
2021/03/16 03:39:17;;;;;;;1.53;0.77;;;19.70;39.80;;;;;;5045000;28;20493;-71
2021/03/16 03:41:43;;;;;;;1.57;0.83;;;19.70;39.80;;;;;;5077113;28;20512;-71
2021/03/16 03:44:10;;;;;;;4.80;1.40;;;19.60;39.80;;;;;;5052185;28;20547;-71
2021/03/16 03:46:36;;;;;;;2.40;0.87;;;19.60;39.80;;;;;;5054022;28;20474;-71
2021/03/16 03:49:03;;;;;;;4.40;0.93;;;19.70;40.10;;;;;;5054020;28;20491;-70
2021/03/16 03:51:29;;;;;;;0.70;0.60;;;19.60;39.80;;;;;;5055383;28;20481;-71
2021/03/16 03:53:55;;;;;;;2.17;0.93;;;19.70;40.00;;;;;;5051776;28;20478;-71
2021/03/16 03:56:22;;;;;;;1.23;0.67;;;19.60;39.80;;;;;;5055428;28;20619;-71
2021/03/16 03:58:48;;;;;;;2.10;1.37;;;19.60;39.80;;;;;;5058747;28;20489;-70
2021/03/16 04:01:14;;;;;;;1.33;0.97;;;19.60;39.80;;;;;;5060577;28;20486;-69
2021/03/16 04:03:40;;;;;;;2.90;1.00;;;19.60;39.90;;;;;;5039224;28;20489;-70
2021/03/16 04:06:06;;;;;;;0.97;0.70;;;19.60;39.80;;;;;;5050723;28;20478;-70
2021/03/16 04:08:33;;;;;;;4.40;1.17;;;19.50;39.80;;;;;;5054378;28;21186;-71
2021/03/16 04:10:59;;;;;;;4.57;2.03;;;19.50;39.80;;;;;;5055031;28;20490;-71
2021/03/16 04:13:26;;;;;;;3.80;1.10;;;19.50;39.70;;;;;;5037226;28;20481;-71
2021/03/16 04:15:52;;;;;;;4.27;0.90;;;19.50;39.70;;;;;;5055305;28;20493;-71
2021/03/16 04:18:19;;;;;;;3.03;1.10;;;19.50;39.60;;;;;;5056070;28;20482;-71
2021/03/16 04:20:45;;;;;;;2.80;1.37;;;19.50;39.50;;;;;;5054417;28;20490;-71
2021/03/16 04:23:11;;;;;;;7.10;1.47;;;19.50;39.50;;;;;;5053574;28;20489;-71
2021/03/16 04:25:37;;;;;;;1.90;1.27;;;19.50;39.80;;;;;;5053906;28;20875;-71
2021/03/16 04:28:03;;;;;;;1.00;0.90;;;19.50;39.50;;;;;;5054703;28;21005;-71
2021/03/16 04:30:30;;;;;;;4.10;0.93;;;19.50;39.30;;;;;;5049048;28;21307;-71
2021/03/16 04:32:56;;;;;;;2.40;1.30;;;19.50;39.30;;;;;;5051083;28;20833;-71
2021/03/16 04:35:22;;;;;;;3.10;1.30;;;19.50;39.50;;;;;;5072638;28;20490;-71
2021/03/16 04:37:49;;;;;;;3.10;1.10;;;19.50;39.60;;;;;;5055712;28;20484;-72
2021/03/16 04:40:15;;;;;;;4.53;1.57;;;19.50;39.70;;;;;;5056741;28;20489;-71
2021/03/16 04:42:42;;;;;;;5.47;2.10;;;19.50;39.80;;;;;;5026329;28;20472;-70
2021/03/16 04:45:09;;;;;;;3.87;1.40;;;19.50;39.70;;;;;;5049801;28;20865;-71
2021/03/16 04:47:36;;;;;;;3.67;1.07;;;19.50;39.80;;;;;;5055078;28;21221;-71
2021/03/16 04:50:03;;;;;;;4.47;1.87;;;19.50;39.70;;;;;;5061878;28;20966;-71
2021/03/16 04:52:29;;;;;;;6.00;1.37;;;19.50;39.80;;;;;;5057903;28;21636;-72
2021/03/16 04:54:55;;;;;;;7.07;1.53;;;19.60;40.10;;;;;;5059886;28;20481;-70
2021/03/16 04:57:21;;;;;;;2.60;1.50;;;19.60;40.20;;;;;;5056499;28;20486;-71
2021/03/16 04:59:47;;;;;;;8.50;2.00;;;19.60;40.00;;;;;;5054603;28;20488;-71
2021/03/16 05:02:14;;;;;;;4.63;1.27;;;19.50;39.80;;;;;;5051392;28;20524;-71
2021/03/16 05:04:41;;;;;;;6.10;1.67;;;19.60;39.90;;;;;;5055243;28;20591;-70
2021/03/16 05:07:07;;;;;;;4.50;1.33;;;19.60;40.00;;;;;;5052455;28;20550;-71
2021/03/16 05:09:33;;;;;;;2.13;1.30;;;19.60;40.20;;;;;;5056707;28;21104;-71
2021/03/16 05:11:59;;;;;;;9.10;1.80;;;19.60;39.90;;;;;;5058661;28;21178;-71
2021/03/16 05:14:25;;;;;;;5.53;1.40;;;19.60;40.00;;;;;;5051302;28;20490;-71
2021/03/16 05:16:51;;;;;;;5.27;1.33;;;19.60;40.10;;;;;;5056665;28;20490;-71
2021/03/16 05:19:17;;;;;;;3.03;1.03;;;19.50;39.80;;;;;;5054720;28;20501;-72
2021/03/16 05:21:44;;;;;;;6.47;1.27;;;19.50;40.00;;;;;;5057642;28;20482;-70
2021/03/16 05:24:10;;;;;;;2.60;1.23;;;19.50;40.10;;;;;;5056628;28;20551;-71
2021/03/16 05:26:37;;;;;;;5.77;1.73;;;19.50;39.80;;;;;;5043939;28;21963;-72
2021/03/16 05:29:03;;;;;;;6.17;2.07;;;19.50;40.00;;;;;;5045579;28;20493;-71
2021/03/16 05:31:30;;;;;;;3.50;2.10;;;19.50;39.90;;;;;;5051489;28;20972;-71
2021/03/16 05:33:56;;;;;;;3.37;1.70;;;19.50;39.90;;;;;;5083113;28;20991;-72
2021/03/16 05:36:22;;;;;;;2.63;1.43;;;19.50;39.80;;;;;;5056599;28;20490;-71
2021/03/16 05:38:49;;;;;;;4.97;1.10;;;19.60;40.00;;;;;;5057239;28;21102;-70
2021/03/16 05:41:15;;;;;;;4.47;1.10;;;19.50;40.00;;;;;;5057413;28;21146;-70
2021/03/16 05:43:41;;;;;;;2.87;1.67;;;19.50;39.90;;;;;;5043999;28;20509;-71
2021/03/16 05:46:08;;;;;;;2.37;1.23;;;19.50;39.90;;;;;;5060925;28;20546;-71
2021/03/16 05:48:34;;;;;;;6.50;1.97;;;19.50;40.10;;;;;;5071305;28;20556;-71
2021/03/16 05:51:01;;;;;;;11.30;1.40;;;19.50;40.10;;;;;;5054222;28;20504;-70
2021/03/16 05:53:27;;;;;;;5.10;1.90;;;19.50;40.00;;;;;;5057229;28;20519;-71
2021/03/16 05:55:54;;;;;;;4.93;1.60;;;19.50;40.00;;;;;;5056820;28;21140;-71
2021/03/16 05:58:22;;;;;;;6.10;1.60;;;19.50;40.00;;;;;;5047368;28;20489;-71
2021/03/16 06:00:48;;;;;;;5.63;1.43;;;19.50;40.00;;;;;;5054526;28;20870;-72
2021/03/16 06:03:14;;;;;;;7.93;1.20;;;19.60;39.80;;;;;;5052832;28;20999;-74
2021/03/16 06:05:40;;;;;;;4.27;2.27;;;19.60;42.10;;;;;;5076710;28;20489;-70
2021/03/16 06:08:06;;;;;;;5.00;1.33;;;19.70;40.30;;;;;;5056574;28;20847;-71
2021/03/16 06:10:32;;;;;;;11.43;1.60;;;19.60;40.10;;;;;;5055082;28;20489;-71
2021/03/16 06:13:09;;;;;;;9.63;1.83;;;19.60;40.40;;;;;;5052698;28;20494;-71
2021/03/16 06:15:35;;;;;;;7.37;1.30;;;19.60;39.80;;;;;;5049177;28;20546;-70
2021/03/16 06:18:02;;;;;;;4.07;1.40;;;19.70;39.70;;;;;;5057051;28;20573;-70
2021/03/16 06:20:28;;;;;;;4.00;1.83;;;19.70;39.50;;;;;;5049483;28;20520;-70
2021/03/16 06:23:04;;;;;;;6.27;1.77;;;19.70;39.40;;;;;;5064863;28;20485;-70
2021/03/16 06:25:31;;;;;;;1.90;1.33;;;19.70;39.30;;;;;;5042477;28;20614;-71
2021/03/16 06:28:02;;;;;;;3.20;1.43;;;19.70;39.40;;;;;;5048350;28;20486;-71
2021/03/16 06:30:28;;;;;;;6.33;1.60;;;19.70;39.40;;;;;;5044663;28;20482;-72
2021/03/16 06:32:54;;;;;;;11.60;3.17;;;19.70;41.40;;;;;;5038254;28;20572;-71
2021/03/16 06:35:21;;;;;;;9.10;1.40;;;19.70;39.70;;;;;;5048737;28;20640;-72
2021/03/16 06:38:00;;;;;;;7.63;1.97;;;19.80;39.80;;;;;;5050995;28;21164;-72
2021/03/16 06:40:28;;;;;;;15.37;1.57;;;19.80;39.60;;;;;;5050767;28;20469;-73
2021/03/16 06:43:05;;;;;;;3.10;1.20;;;19.90;39.60;;;;;;5048714;28;20473;-70
2021/03/16 06:45:32;;;;;;;1.43;1.20;;;19.90;39.60;;;;;;5043682;28;20492;-71
2021/03/16 06:47:58;;;;;;;8.70;2.00;;;20.00;39.60;;;;;;5050754;28;20474;-71
2021/03/16 06:50:28;;;;;;;7.80;2.13;;;20.00;39.60;;;;;;5034104;28;20576;-71
2021/03/16 06:52:54;;;;;;;3.67;1.30;;;20.00;39.60;;;;;;5045832;28;21462;-71
2021/03/16 06:55:21;;;;;;;4.03;1.50;;;19.90;39.60;;;;;;5042752;28;21031;-72
2021/03/16 06:57:47;;;;;;;1.63;1.47;;;19.90;39.60;;;;;;5042811;28;20482;-70
2021/03/16 07:00:15;;;;;;;3.80;1.23;;;19.90;39.60;;;;;;5047054;28;20482;-70
2021/03/16 07:02:42;;;;;;;4.53;1.30;;;19.90;39.70;;;;;;5051085;28;20473;-71
2021/03/16 07:05:09;;;;;;;2.90;1.13;;;19.90;39.70;;;;;;5050538;28;20515;-71
2021/03/16 07:07:35;;;;;;;4.30;1.07;;;19.80;39.60;;;;;;5037850;28;20490;-71
2021/03/16 07:10:01;;;;;;;4.30;1.40;;;19.80;39.60;;;;;;5047756;28;20497;-70
2021/03/16 07:12:32;;;;;;;3.73;1.57;;;19.80;39.70;;;;;;5043650;28;20511;-71
2021/03/16 07:14:59;;;;;;;2.57;1.20;;;19.80;39.70;;;;;;5033564;28;20505;-71
2021/03/16 07:17:26;;;;;;;4.93;1.40;;;19.80;39.70;;;;;;5059485;28;20572;-71
2021/03/16 07:19:53;;;;;;;2.90;1.57;;;19.80;39.80;;;;;;5052022;28;20504;-71
2021/03/16 07:22:21;;;;;;;3.03;1.63;;;19.80;39.80;;;;;;5042154;28;20477;-71
2021/03/16 07:24:47;;;;;;;3.60;1.10;;;19.80;39.80;;;;;;5048060;28;20561;-71
2021/03/16 07:27:13;;;;;;;2.33;1.00;;;19.80;40.00;;;;;;5049003;28;21043;-71
2021/03/16 07:29:39;;;;;;;3.30;1.60;;;19.80;40.00;;;;;;5045785;28;20991;-70
2021/03/16 07:32:06;;;;;;;3.47;1.30;;;19.80;40.00;;;;;;5042886;28;20497;-71
2021/03/16 07:34:33;;;;;;;3.80;1.63;;;19.80;40.10;;;;;;5042438;28;20478;-70
2021/03/16 07:37:01;;;;;;;3.53;1.10;;;19.80;40.00;;;;;;5044425;28;20500;-71
2021/03/16 07:39:27;;;;;;;4.93;1.13;;;19.80;40.10;;;;;;5049107;28;20490;-71
2021/03/16 07:41:53;;;;;;;1.03;0.90;;;19.80;40.10;;;;;;5048043;28;20479;-71
2021/03/16 07:44:20;;;;;;;5.93;1.70;;;19.80;40.10;;;;;;5054258;28;20499;-71
2021/03/16 07:46:47;;;;;;;1.70;1.20;;;19.80;40.10;;;;;;5058854;28;20852;-69
2021/03/16 07:49:14;;;;;;;2.30;1.50;;;19.80;40.10;;;;;;5039174;28;20515;-70
2021/03/16 07:51:44;;;;;;;3.60;1.60;;;19.80;40.20;;;;;;5061095;28;21057;-71
2021/03/16 07:54:11;;;;;;;5.07;1.23;;;19.70;40.20;;;;;;5048088;28;20482;-71
2021/03/16 07:56:38;;;;;;;1.17;0.80;;;19.70;40.20;;;;;;5050978;28;20480;-71
2021/03/16 07:59:05;;;;;;;2.43;0.70;;;19.70;40.20;;;;;;5048871;28;20481;-71
2021/03/16 08:01:31;;;;;;;3.63;1.17;;;19.70;40.20;;;;;;5038397;28;20508;-71
2021/03/16 08:04:04;;;;;;;4.70;1.20;;;19.70;40.20;;;;;;5048717;28;20504;-71
2021/03/16 08:06:33;;;;;;;2.57;1.00;;;19.70;40.20;;;;;;5051039;28;20842;-71
2021/03/16 08:09:00;;;;;;;7.47;1.10;;;19.70;40.20;;;;;;5034538;28;20498;-71
2021/03/16 08:11:37;;;;;;;1.80;0.90;;;19.70;40.20;;;;;;5052097;28;20501;-70
2021/03/16 08:14:04;;;;;;;2.43;1.00;;;19.70;40.30;;;;;;5037180;28;20489;-70
2021/03/16 08:16:34;;;;;;;2.50;1.43;;;19.70;40.30;;;;;;5048349;28;20570;-70
2021/03/16 08:19:11;;;;;;;1.90;1.00;;;19.70;40.30;;;;;;5044714;28;20551;-71
2021/03/16 08:21:37;;;;;;;1.33;1.23;;;19.70;40.30;;;;;;5043216;28;20896;-71
2021/03/16 08:24:06;;;;;;;1.27;0.77;;;19.60;40.30;;;;;;5047681;28;20486;-71
2021/03/16 08:26:32;;;;;;;2.30;1.07;;;19.60;40.30;;;;;;5047744;28;20508;-70
2021/03/16 08:28:58;;;;;;;2.37;1.17;;;19.70;40.40;;;;;;5051247;28;21012;-72
2021/03/16 08:31:24;;;;;;;3.13;1.23;;;19.60;40.50;;;;;;5053030;28;20988;-71
2021/03/16 08:33:50;;;;;;;1.10;0.90;;;19.70;40.50;;;;;;5052541;28;20490;-71
2021/03/16 08:36:17;;;;;;;3.17;1.30;;;19.70;40.60;;;;;;5039130;28;20470;-69
2021/03/16 08:38:43;;;;;;;3.70;1.60;;;19.60;40.40;;;;;;5063909;28;20474;-71
2021/03/16 08:41:13;;;;;;;2.50;0.97;;;19.70;40.50;;;;;;5048635;28;20494;-71
2021/03/16 08:43:41;;;;;;;5.93;1.17;;;19.70;40.40;;;;;;5037837;28;20524;-71
2021/03/16 08:46:10;;;;;;;1.50;0.97;;;19.60;40.50;;;;;;5047931;28;20531;-71
2021/03/16 08:48:36;;;;;;;4.43;1.23;;;19.70;40.50;;;;;;5053501;28;20508;-71
2021/03/16 08:51:02;;;;;;;2.43;1.27;;;19.60;40.60;;;;;;5049398;28;20547;-71
2021/03/16 08:53:28;;;;;;;1.57;1.00;;;19.60;40.60;;;;;;5044998;28;20489;-71
2021/03/16 08:55:54;;;;;;;2.50;0.93;;;19.60;41.50;;;;;;5050622;28;21076;-71
2021/03/16 08:58:21;;;;;;;2.57;1.00;;;19.60;40.80;;;;;;5047268;28;21362;-71
2021/03/16 09:00:48;;;;;;;3.23;1.43;;;19.50;40.80;;;;;;5050838;28;21013;-69
2021/03/16 09:03:14;;;;;;;2.73;0.90;;;19.60;41.00;;;;;;5048318;28;21221;-70
2021/03/16 09:05:40;;;;;;;2.60;0.93;;;19.60;41.00;;;;;;5043643;28;20473;-71
2021/03/16 09:08:06;;;;;;;2.60;1.53;;;19.60;40.80;;;;;;5057681;28;20472;-71
2021/03/16 09:10:32;;;;;;;3.27;0.90;;;19.60;40.90;;;;;;5052790;28;20495;-70
2021/03/16 09:13:00;;;;;;;6.73;1.30;;;19.60;41.00;;;;;;5049234;28;20502;-70
2021/03/16 09:15:27;;;;;;;3.50;1.60;;;19.50;41.10;;;;;;5047536;28;20494;-70
2021/03/16 09:17:54;;;;;;;1.97;1.00;;;19.50;41.10;;;;;;5039404;28;21164;-70
2021/03/16 09:20:21;;;;;;;2.80;1.10;;;19.50;41.00;;;;;;5052795;28;20486;-70
2021/03/16 09:22:52;;;;;;;0.90;0.90;;;19.50;41.00;;;;;;5034061;28;20481;-70
2021/03/16 09:25:18;;;;;;;1.33;0.80;;;19.60;40.80;;;;;;5038660;28;20470;-70
2021/03/16 09:27:44;;;;;;;1.90;1.23;;;19.60;40.60;;;;;;5048701;28;20486;-71
2021/03/16 09:30:11;;;;;;;3.03;0.80;;;19.60;41.30;;;;;;5048204;28;20502;-70
2021/03/16 09:32:38;;;;;;;1.53;1.00;;;19.70;40.50;;;;;;5044471;28;20490;-70
2021/03/16 09:35:05;;;;;;;5.63;1.30;;;19.70;40.40;;;;;;5050274;28;20524;-70
2021/03/16 09:37:41;;;;;;;2.40;1.43;;;19.70;40.40;;;;;;5048679;28;20489;-69
2021/03/16 09:40:08;;;;;;;3.60;1.00;;;19.80;40.40;;;;;;5049793;28;20822;-71
2021/03/16 09:42:36;;;;;;;4.63;1.13;;;19.80;40.30;;;;;;5046030;28;20493;-70
2021/03/16 09:45:03;;;;;;;1.77;1.10;;;19.90;40.30;;;;;;5038106;28;20570;-70
2021/03/16 09:47:30;;;;;;;8.80;1.30;;;19.90;40.10;;;;;;5046777;28;20490;-70
2021/03/16 09:50:09;;;;;;;1.90;1.00;;;19.90;40.10;;;;;;5049910;28;21056;-68
2021/03/16 09:52:35;;;;;;;4.20;1.10;;;20.00;40.30;;;;;;5039847;28;20478;-71
2021/03/16 09:55:01;;;;;;;2.53;1.23;;;20.00;40.10;;;;;;5040809;28;20481;-70
2021/03/16 09:57:32;;;;;;;3.80;1.13;;;20.00;40.10;;;;;;5039057;28;20500;-70
2021/03/16 09:59:58;;;;;;;3.07;1.37;;;20.00;40.10;;;;;;5056888;28;20557;-70
2021/03/16 10:02:31;;;;;;;6.93;1.17;;;20.00;40.80;;;;;;5045519;28;20492;-71
2021/03/16 10:05:03;;;;;;;2.50;1.10;;;20.00;39.90;;;;;;5050778;28;20482;-70
2021/03/16 10:07:31;;;;;;;2.20;0.80;;;20.00;39.80;;;;;;5050059;28;20478;-71
2021/03/16 10:10:15;;;;;;;2.77;1.20;;;20.10;39.80;;;;;;5052105;28;20489;-70
2021/03/16 10:12:50;;;;;;;3.53;1.43;;;20.00;39.80;;;;;;5047950;28;20513;-70
2021/03/16 10:15:21;;;;;;;1.57;1.10;;;20.00;39.80;;;;;;5064796;28;20934;-69
2021/03/16 10:17:47;;;;;;;3.80;1.73;;;20.10;39.90;;;;;;5050909;28;20859;-69
2021/03/16 10:20:16;;;;;;;1.90;1.00;;;20.00;39.80;;;;;;5046577;28;20547;-69
2021/03/16 10:22:43;;;;;;;3.00;1.23;;;20.10;39.80;;;;;;5039918;28;20470;-71
2021/03/16 10:25:10;;;;;;;5.03;1.30;;;20.00;39.90;;;;;;5048338;28;20563;-71
2021/03/16 10:27:36;;;;;;;2.60;1.40;;;20.00;39.90;;;;;;5047910;28;20482;-70
2021/03/16 10:30:03;;;;;;;4.63;1.43;;;20.00;39.90;;;;;;5046945;28;20477;-70
2021/03/16 10:32:29;;;;;;;3.57;1.40;;;20.10;40.10;;;;;;5045081;28;20495;-71
2021/03/16 10:34:55;;;;;;;1.10;0.70;;;20.10;40.10;;;;;;5053618;28;20959;-70
2021/03/16 10:37:22;;;;;;;2.27;1.20;;;20.10;40.00;;;;;;5045449;28;21079;-70
2021/03/16 10:39:49;;;;;;;4.40;0.70;;;20.10;39.90;;;;;;5039909;28;20531;-70
2021/03/16 10:42:16;;;;;;;4.57;1.57;;;20.10;40.00;;;;;;5043901;28;21085;-70
2021/03/16 10:44:42;;;;;;;2.53;1.40;;;20.00;40.00;;;;;;5049536;28;21301;-70
2021/03/16 10:47:08;;;;;;;2.63;1.50;;;20.00;40.10;;;;;;5047785;28;20525;-70
2021/03/16 10:49:34;;;;;;;2.53;1.30;;;20.00;40.10;;;;;;5049494;28;20897;-69
2021/03/16 10:52:01;;;;;;;2.97;1.20;;;20.10;40.10;;;;;;5042296;28;21515;-70
2021/03/16 10:54:27;;;;;;;5.50;1.30;;;20.10;40.20;;;;;;5049452;28;20489;-70
2021/03/16 10:56:55;;;;;;;4.40;1.33;;;20.10;40.20;;;;;;5037372;28;20513;-70
2021/03/16 10:59:21;;;;;;;2.40;1.30;;;20.10;40.20;;;;;;5051181;28;20514;-70
2021/03/16 11:01:48;;;;;;;2.93;1.00;;;20.10;40.20;;;;;;5043286;28;20478;-70
2021/03/16 11:04:14;;;;;;;6.30;1.50;;;20.00;40.10;;;;;;5044596;28;21004;-69
2021/03/16 11:06:40;;;;;;;3.30;1.10;;;20.00;40.20;;;;;;5047980;28;20494;-69
2021/03/16 11:09:07;;;;;;;3.13;0.87;;;20.00;40.20;;;;;;5051515;28;20507;-68
2021/03/16 11:11:33;;;;;;;3.40;1.40;;;20.00;40.30;;;;;;5046948;28;20489;-68
2021/03/16 11:14:00;;;;;;;6.50;1.40;;;20.00;40.10;;;;;;5049288;28;20495;-70
2021/03/16 11:16:26;;;;;;;1.73;1.10;;;20.00;40.10;;;;;;5048938;28;20478;-70
2021/03/16 11:18:52;;;;;;;3.00;1.80;;;20.00;40.10;;;;;;5049487;28;20512;-70
2021/03/16 11:21:18;;;;;;;4.07;1.40;;;20.00;40.10;;;;;;5053904;28;20487;-68
2021/03/16 11:23:44;;;;;;;4.20;1.13;;;20.00;40.00;;;;;;5049170;28;20471;-70
2021/03/16 11:26:10;;;;;;;3.00;1.57;;;20.00;39.90;;;;;;5046838;28;20545;-69
2021/03/16 11:28:36;;;;;;;7.70;1.30;;;20.00;40.00;;;;;;5057379;28;20489;-71
2021/03/16 11:31:03;;;;;;;3.30;1.90;;;20.00;40.00;;;;;;5054627;28;20519;-69
2021/03/16 11:33:30;;;;;;;4.17;1.13;;;20.00;40.00;;;;;;5044043;28;20485;-70
2021/03/16 11:35:56;;;;;;;7.93;1.03;;;20.00;40.00;;;;;;5040901;28;20514;-70
2021/03/16 11:38:22;;;;;;;1.70;1.10;;;20.00;40.00;;;;;;5069865;28;20489;-71
2021/03/16 11:40:48;;;;;;;4.37;0.97;;;20.00;40.00;;;;;;5049849;28;20494;-69
2021/03/16 11:43:14;;;;;;;1.30;1.20;;;20.00;40.20;;;;;;5046341;28;20482;-69
2021/03/16 11:45:42;;;;;;;2.50;0.90;;;20.00;40.20;;;;;;5039388;28;20858;-70
2021/03/16 11:48:10;;;;;;;4.77;1.43;;;20.00;40.20;;;;;;5047501;28;20489;-70
2021/03/16 11:50:36;;;;;;;2.20;1.00;;;20.00;40.20;;;;;;5051295;28;20481;-70
2021/03/16 11:53:02;;;;;;;4.67;0.80;;;20.00;40.30;;;;;;5036012;28;20478;-70
2021/03/16 11:55:28;;;;;;;2.53;1.33;;;20.00;40.40;;;;;;5031139;28;20486;-70
2021/03/16 11:57:54;;;;;;;1.40;1.30;;;19.90;40.20;;;;;;5041291;28;20482;-70
2021/03/16 12:00:20;;;;;;;1.73;1.00;;;19.90;40.30;;;;;;5049566;28;20877;-69
2021/03/16 12:02:47;;;;;;;3.23;1.03;;;19.90;40.30;;;;;;5045555;28;20473;-70
2021/03/16 12:05:14;;;;;;;2.23;0.87;;;19.90;40.20;;;;;;5057811;28;20481;-69
2021/03/16 12:07:40;;;;;;;2.83;1.50;;;19.90;40.10;;;;;;5051067;28;20478;-71
2021/03/16 12:10:07;;;;;;;2.40;1.10;;;19.90;40.20;;;;;;5053812;28;20480;-70
2021/03/16 12:12:33;;;;;;;7.63;1.03;;;19.90;40.20;;;;;;5049411;28;20497;-69
2021/03/16 12:14:59;;;;;;;3.33;1.13;;;20.00;40.30;;;;;;5043548;28;20488;-70
2021/03/16 12:17:26;;;;;;;2.27;1.47;;;20.00;40.20;;;;;;5063695;28;20472;-70
2021/03/16 12:19:52;;;;;;;2.10;0.90;;;20.00;40.20;;;;;;5054040;28;21001;-70
2021/03/16 12:22:19;;;;;;;1.77;1.20;;;20.00;41.10;;;;;;5046296;28;20482;-70
2021/03/16 12:24:46;;;;;;;3.73;1.50;;;19.90;40.30;;;;;;5052754;28;20475;-70
2021/03/16 12:27:12;;;;;;;1.03;0.93;;;19.90;40.20;;;;;;5052309;28;20913;-70
2021/03/16 12:29:38;;;;;;;3.37;1.80;;;19.80;40.20;;;;;;5056905;28;20478;-69
2021/03/16 12:32:06;;;;;;;4.53;1.30;;;19.80;40.20;;;;;;5048971;28;20489;-70
2021/03/16 12:34:32;;;;;;;1.73;0.90;;;19.80;40.40;;;;;;5041098;28;20482;-69
2021/03/16 12:36:58;;;;;;;1.40;0.90;;;19.90;40.40;;;;;;5058017;28;21042;-70
2021/03/16 12:39:25;;;;;;;1.80;1.23;;;19.90;40.30;;;;;;5048075;28;21011;-70
2021/03/16 12:41:51;;;;;;;1.00;0.90;;;19.90;40.40;;;;;;5019832;28;21548;-69
2021/03/16 12:44:17;;;;;;;0.80;0.80;;;19.90;40.40;;;;;;5049054;28;20869;-69